Time;durP1;ratioP1;P1;durP2;ratioP2;P2;SDS_P1;SDS_P2;PMS_P1;PMS_P2;Temp;Humidity;BMP_temperature;BMP_pressure;BME280_temperature;BME280_humidity;BME280_pressure;Samples;Min_cycle;Max_cycle;Signal;HPM_P1;HPM_P2
2022/11/22 00:00:34;;;;;;;17.80;11.90;;;5.70;99.90;;;;;;4933747;28;20043;-69
2022/11/22 00:03:00;;;;;;;20.02;11.90;;;5.70;99.90;;;;;;4930010;28;20043;-69
2022/11/22 00:05:26;;;;;;;22.67;14.05;;;5.60;99.90;;;;;;4929779;28;20046;-69
2022/11/22 00:07:51;;;;;;;19.58;12.55;;;5.60;99.90;;;;;;4940447;28;20110;-69
2022/11/22 00:10:17;;;;;;;25.38;14.15;;;5.60;99.90;;;;;;4935762;28;20032;-69
2022/11/22 00:12:43;;;;;;;21.80;12.77;;;5.50;99.90;;;;;;4938294;28;20023;-71
2022/11/22 00:15:10;;;;;;;21.40;12.55;;;5.50;99.90;;;;;;4948421;28;20045;-72
2022/11/22 00:17:36;;;;;;;20.17;11.63;;;5.20;99.90;;;;;;4942520;28;20036;-71
2022/11/22 00:20:03;;;;;;;20.35;11.85;;;5.20;99.90;;;;;;4936831;28;20070;-71
2022/11/22 00:22:31;;;;;;;18.77;12.02;;;5.10;99.90;;;;;;4933457;28;20066;-72
2022/11/22 00:24:56;;;;;;;18.27;12.40;;;5.10;99.90;;;;;;4943105;28;20461;-72
2022/11/22 00:27:22;;;;;;;23.08;13.07;;;5.10;99.90;;;;;;4937172;28;20115;-71
2022/11/22 00:29:48;;;;;;;22.45;12.65;;;5.10;99.90;;;;;;4945965;28;20470;-72
2022/11/22 00:32:14;;;;;;;21.05;15.18;;;5.10;99.90;;;;;;4943517;28;20023;-71
2022/11/22 00:34:40;;;;;;;24.08;13.20;;;5.20;99.90;;;;;;4943513;28;20057;-72
2022/11/22 00:37:05;;;;;;;22.75;13.68;;;5.20;99.90;;;;;;4936004;28;20497;-71
2022/11/22 00:39:31;;;;;;;21.35;13.52;;;5.20;99.90;;;;;;4938917;29;20046;-72
2022/11/22 00:41:57;;;;;;;21.65;13.48;;;5.10;99.90;;;;;;4936526;28;20397;-71
2022/11/22 00:44:22;;;;;;;25.35;13.50;;;5.20;99.90;;;;;;4944675;28;20031;-69
2022/11/22 00:46:48;;;;;;;24.02;13.07;;;5.20;99.90;;;;;;4939969;29;20122;-72
2022/11/22 00:49:14;;;;;;;19.50;12.45;;;5.10;99.90;;;;;;4940339;28;20095;-69
2022/11/22 00:51:39;;;;;;;24.40;13.00;;;5.10;99.90;;;;;;4946098;28;20038;-71
2022/11/22 00:54:05;;;;;;;20.73;12.25;;;5.10;99.90;;;;;;4936840;28;20422;-72
2022/11/22 00:56:32;;;;;;;23.35;12.52;;;5.10;99.90;;;;;;4940366;29;20501;-71
2022/11/22 00:58:57;;;;;;;22.13;13.57;;;5.10;99.90;;;;;;4934572;28;20027;-71
2022/11/22 01:01:23;;;;;;;17.77;12.30;;;5.20;99.90;;;;;;4933636;29;20106;-71
2022/11/22 01:03:49;;;;;;;18.15;10.80;;;5.10;99.90;;;;;;4938505;28;20529;-71
2022/11/22 01:06:15;;;;;;;19.58;12.00;;;5.00;99.90;;;;;;4935826;28;20046;-71
2022/11/22 01:08:40;;;;;;;19.20;10.90;;;5.00;99.90;;;;;;4935361;28;20070;-71
2022/11/22 01:11:06;;;;;;;16.48;10.43;;;4.90;99.90;;;;;;4941311;28;20118;-71
2022/11/22 01:13:33;;;;;;;18.40;10.52;;;4.90;99.90;;;;;;4940782;28;20573;-71
2022/11/22 01:16:04;;;;;;;17.60;10.68;;;4.80;99.90;;;;;;4935059;28;20043;-71
2022/11/22 01:18:31;;;;;;;15.48;9.38;;;4.80;99.90;;;;;;4944200;29;20039;-71
2022/11/22 01:20:57;;;;;;;14.52;9.80;;;4.70;99.90;;;;;;4938151;28;20545;-71
2022/11/22 01:23:22;;;;;;;16.60;8.98;;;4.70;99.90;;;;;;4933776;29;20032;-71
2022/11/22 01:25:48;;;;;;;18.63;11.10;;;4.70;99.90;;;;;;4938912;28;20402;-71
2022/11/22 01:28:14;;;;;;;18.15;9.95;;;4.80;99.90;;;;;;4945500;28;20119;-71
2022/11/22 01:30:40;;;;;;;19.83;12.43;;;4.90;99.90;;;;;;4940533;28;20711;-71
2022/11/22 01:33:06;;;;;;;15.10;10.38;;;5.10;99.90;;;;;;4943599;28;20050;-71
2022/11/22 01:35:32;;;;;;;18.52;11.48;;;5.00;99.90;;;;;;4943295;28;20027;-71
2022/11/22 01:37:58;;;;;;;17.15;9.80;;;5.10;99.90;;;;;;4935978;28;20138;-71
2022/11/22 01:40:23;;;;;;;16.48;10.25;;;5.10;99.90;;;;;;4939162;28;20035;-71
2022/11/22 01:42:53;;;;;;;20.35;11.55;;;5.20;99.90;;;;;;4937317;29;20039;-72
2022/11/22 01:45:28;;;;;;;18.85;10.75;;;5.30;99.90;;;;;;4938843;28;20035;-71
2022/11/22 01:48:05;;;;;;;15.57;10.40;;;5.30;99.90;;;;;;4940861;28;20095;-71
2022/11/22 01:50:34;;;;;;;14.43;9.82;;;5.40;99.90;;;;;;4939261;29;20038;-71
2022/11/22 01:53:05;;;;;;;17.92;10.75;;;5.30;99.90;;;;;;4949659;28;20445;-72
2022/11/22 01:55:33;;;;;;;15.85;9.63;;;5.40;99.90;;;;;;4945670;28;20058;-71
2022/11/22 01:57:59;;;;;;;16.27;9.65;;;5.20;99.90;;;;;;4939589;28;20062;-71
2022/11/22 02:00:25;;;;;;;15.90;9.15;;;5.20;99.90;;;;;;4942402;28;20066;-71
2022/11/22 02:02:57;;;;;;;13.73;8.65;;;5.20;99.90;;;;;;4935088;28;20068;-71
2022/11/22 02:05:27;;;;;;;12.77;8.23;;;5.10;99.90;;;;;;4935288;28;20035;-71
2022/11/22 02:08:09;;;;;;;13.75;8.60;;;5.10;99.90;;;;;;4934206;28;20027;-71
2022/11/22 02:10:39;;;;;;;13.82;7.90;;;5.10;99.90;;;;;;4932927;28;20115;-71
2022/11/22 02:13:06;;;;;;;11.70;7.63;;;5.10;99.90;;;;;;4937298;28;20598;-71
2022/11/22 02:15:34;;;;;;;12.00;8.38;;;5.00;99.90;;;;;;4936860;28;20027;-71
2022/11/22 02:18:00;;;;;;;13.43;7.43;;;4.90;99.90;;;;;;4939442;28;20039;-71
2022/11/22 02:20:26;;;;;;;12.20;8.68;;;4.90;99.90;;;;;;4939976;28;20039;-71
2022/11/22 02:23:10;;;;;;;12.65;8.55;;;4.80;99.90;;;;;;4934042;28;20028;-71
2022/11/22 02:25:36;;;;;;;13.68;8.93;;;4.70;99.90;;;;;;4940882;28;20023;-71
2022/11/22 02:28:06;;;;;;;13.52;8.55;;;4.70;99.90;;;;;;4935316;28;20034;-71
2022/11/22 02:30:31;;;;;;;12.63;9.02;;;4.60;99.90;;;;;;4938861;28;20126;-71
2022/11/22 02:32:57;;;;;;;14.43;8.32;;;4.60;99.90;;;;;;4939624;28;20450;-72
2022/11/22 02:35:27;;;;;;;14.35;8.45;;;4.50;99.90;;;;;;4936782;28;20027;-71
2022/11/22 02:38:15;;;;;;;12.30;7.75;;;4.50;99.90;;;;;;4945272;28;20541;-71
2022/11/22 02:40:53;;;;;;;10.95;7.13;;;4.50;99.90;;;;;;4943098;28;20039;-71
2022/11/22 02:43:43;;;;;;;11.60;7.40;;;4.60;99.90;;;;;;4942884;28;20074;-71
2022/11/22 02:46:11;;;;;;;11.50;7.30;;;4.70;99.90;;;;;;4940644;28;20035;-71
2022/11/22 02:48:41;;;;;;;11.18;7.28;;;4.80;99.90;;;;;;4939437;28;20035;-71
2022/11/22 02:51:07;;;;;;;12.25;8.45;;;4.90;99.90;;;;;;4939804;28;20059;-71
2022/11/22 02:53:33;;;;;;;14.43;8.82;;;4.80;99.90;;;;;;4943687;28;20089;-71
2022/11/22 02:55:58;;;;;;;14.13;8.25;;;4.70;99.90;;;;;;4946546;28;20062;-71
2022/11/22 02:58:24;;;;;;;14.32;7.93;;;4.60;99.90;;;;;;4938246;28;20364;-71
2022/11/22 03:00:50;;;;;;;12.73;6.78;;;4.60;99.90;;;;;;4940329;29;20047;-71
2022/11/22 03:03:15;;;;;;;12.80;7.35;;;4.60;99.90;;;;;;4929855;28;20032;-71
2022/11/22 03:05:41;;;;;;;13.40;8.15;;;4.70;99.90;;;;;;4939035;28;20070;-71
2022/11/22 03:08:07;;;;;;;10.90;6.10;;;4.70;99.90;;;;;;4934945;29;20054;-71
2022/11/22 03:10:32;;;;;;;9.85;6.50;;;4.80;99.90;;;;;;4934608;28;20027;-71
2022/11/22 03:12:58;;;;;;;9.18;5.88;;;4.80;99.90;;;;;;4940853;28;20071;-71
2022/11/22 03:15:24;;;;;;;10.68;6.50;;;4.80;99.90;;;;;;4951447;28;20031;-71
2022/11/22 03:17:57;;;;;;;10.77;6.15;;;4.80;99.90;;;;;;4943097;28;20034;-71
2022/11/22 03:20:22;;;;;;;9.82;5.75;;;4.80;99.90;;;;;;4938512;29;20415;-71
2022/11/22 03:22:48;;;;;;;8.80;5.68;;;4.80;99.90;;;;;;4939440;29;20039;-71
2022/11/22 03:25:13;;;;;;;9.98;5.50;;;4.80;99.90;;;;;;4946739;28;20609;-72
2022/11/22 03:27:39;;;;;;;12.48;7.38;;;4.80;99.90;;;;;;4938117;28;20435;-71
2022/11/22 03:30:05;;;;;;;9.80;5.78;;;4.80;99.90;;;;;;4939313;28;20031;-71
2022/11/22 03:32:31;;;;;;;10.25;5.43;;;4.90;99.90;;;;;;4943066;29;20042;-71
2022/11/22 03:34:56;;;;;;;8.68;5.88;;;4.90;99.90;;;;;;4945961;29;20040;-71
2022/11/22 03:37:22;;;;;;;11.23;7.45;;;4.80;99.90;;;;;;4946381;28;20063;-71
2022/11/22 03:39:48;;;;;;;12.23;7.30;;;4.70;99.90;;;;;;4947871;28;20034;-71
2022/11/22 03:42:14;;;;;;;12.63;7.25;;;4.60;99.90;;;;;;4943035;28;20035;-71
2022/11/22 03:44:39;;;;;;;12.88;6.95;;;4.50;99.90;;;;;;4938528;28;20035;-71
2022/11/22 03:47:05;;;;;;;11.07;6.78;;;4.50;99.90;;;;;;4944781;28;20034;-71
2022/11/22 03:49:30;;;;;;;13.93;8.52;;;4.60;99.90;;;;;;4946751;29;20081;-71
2022/11/22 03:51:56;;;;;;;12.07;7.78;;;4.60;99.90;;;;;;4940009;28;20497;-71
2022/11/22 03:54:22;;;;;;;15.05;8.68;;;4.50;99.90;;;;;;4942856;28;20114;-71
2022/11/22 03:56:47;;;;;;;13.75;8.98;;;4.50;99.90;;;;;;4945908;29;20030;-71
2022/11/22 03:59:13;;;;;;;14.85;9.68;;;4.40;99.90;;;;;;4948133;28;20039;-71
2022/11/22 04:01:39;;;;;;;16.17;10.43;;;4.40;99.90;;;;;;4945420;28;20043;-71
2022/11/22 04:04:04;;;;;;;17.05;9.82;;;4.40;99.90;;;;;;4942286;29;20500;-70
2022/11/22 04:06:30;;;;;;;17.27;11.27;;;4.30;99.90;;;;;;4933540;28;20039;-71
2022/11/22 04:08:56;;;;;;;20.17;11.25;;;4.40;99.90;;;;;;4933431;28;20063;-71
2022/11/22 04:11:21;;;;;;;17.02;10.57;;;4.40;99.90;;;;;;4938236;28;20083;-71
2022/11/22 04:16:31;;;;;;;18.63;10.50;;;4.40;99.90;;;;;;4943056;28;20098;-71
2022/11/22 04:18:57;;;;;;;17.05;12.00;;;4.40;99.90;;;;;;4933889;28;20032;-70
2022/11/22 04:21:34;;;;;;;18.42;10.57;;;4.40;99.90;;;;;;4938630;28;20040;-71
2022/11/22 04:26:47;;;;;;;15.68;10.50;;;4.40;99.90;;;;;;4935784;28;20039;-71
2022/11/22 04:29:14;;;;;;;15.40;10.48;;;4.50;99.90;;;;;;4935728;28;20537;-71
2022/11/22 04:34:24;;;;;;;19.83;10.38;;;4.40;99.90;;;;;;4931479;28;20041;-72
2022/11/22 04:36:49;;;;;;;16.77;10.40;;;4.30;99.90;;;;;;4931611;28;20028;-71
2022/11/22 04:39:15;;;;;;;16.00;9.88;;;4.40;99.90;;;;;;4934606;28;20043;-71
2022/11/22 04:41:41;;;;;;;17.77;11.07;;;4.40;99.90;;;;;;4937699;28;20082;-71
2022/11/22 04:46:55;;;;;;;16.85;10.30;;;4.30;99.90;;;;;;4927997;29;20046;-71
2022/11/22 04:49:21;;;;;;;13.57;8.43;;;4.30;99.90;;;;;;4932421;28;20035;-71
2022/11/22 04:54:30;;;;;;;13.70;8.45;;;4.30;99.90;;;;;;4934622;28;20042;-71
2022/11/22 04:56:56;;;;;;;13.77;8.82;;;4.40;99.90;;;;;;4936353;28;20397;-71
2022/11/22 04:59:22;;;;;;;13.55;8.57;;;4.40;99.90;;;;;;4925205;29;20032;-72
2022/11/22 05:01:47;;;;;;;12.60;7.90;;;4.40;99.90;;;;;;4939587;29;20043;-71
2022/11/22 05:04:13;;;;;;;11.77;7.50;;;4.50;99.90;;;;;;4929062;28;20059;-71
2022/11/22 05:06:39;;;;;;;12.48;7.22;;;4.50;99.90;;;;;;4925342;28;20035;-71
2022/11/22 05:09:05;;;;;;;12.60;7.35;;;4.50;99.90;;;;;;4929240;29;20028;-71
2022/11/22 05:11:30;;;;;;;11.68;6.43;;;4.50;99.90;;;;;;4934784;28;20497;-72
2022/11/22 05:13:56;;;;;;;13.80;7.47;;;4.50;99.90;;;;;;4934097;28;20059;-71
2022/11/22 05:16:21;;;;;;;11.23;6.97;;;4.50;99.90;;;;;;4932041;28;20031;-71
2022/11/22 05:18:57;;;;;;;10.18;6.28;;;4.60;99.90;;;;;;4931003;29;20034;-71
2022/11/22 05:21:25;;;;;;;9.05;5.13;;;4.60;99.90;;;;;;4931928;28;20497;-71
2022/11/22 05:23:54;;;;;;;9.80;6.07;;;4.60;99.90;;;;;;4929429;28;20036;-71
2022/11/22 05:26:23;;;;;;;9.90;5.63;;;4.70;99.90;;;;;;4933254;28;20139;-71
2022/11/22 05:28:49;;;;;;;11.18;6.20;;;4.70;99.90;;;;;;4934615;28;20470;-71
2022/11/22 05:31:17;;;;;;;7.90;4.57;;;4.60;99.90;;;;;;4933304;28;20493;-71
2022/11/22 05:33:44;;;;;;;9.15;5.47;;;4.60;99.90;;;;;;4927757;29;20039;-71
2022/11/22 05:36:11;;;;;;;8.55;5.25;;;4.60;99.90;;;;;;4937686;28;20490;-71
2022/11/22 05:38:37;;;;;;;10.20;5.57;;;4.60;99.90;;;;;;4925594;28;20054;-71
2022/11/22 05:41:05;;;;;;;8.07;4.50;;;4.60;99.90;;;;;;4928179;28;20142;-71
2022/11/22 05:43:31;;;;;;;9.50;5.35;;;4.60;99.90;;;;;;4931409;28;20019;-71
2022/11/22 05:46:14;;;;;;;11.18;5.93;;;4.60;99.90;;;;;;4926813;28;20023;-72
2022/11/22 05:48:42;;;;;;;7.72;4.82;;;4.60;99.90;;;;;;4931501;29;20074;-71
2022/11/22 05:51:10;;;;;;;9.45;5.30;;;4.70;99.90;;;;;;4931381;28;20083;-71
2022/11/22 05:53:37;;;;;;;8.15;5.05;;;4.60;99.90;;;;;;4929717;29;20036;-71
2022/11/22 05:56:23;;;;;;;6.80;3.60;;;4.60;99.90;;;;;;4926227;29;20043;-71
2022/11/22 05:58:50;;;;;;;7.00;3.80;;;4.60;99.90;;;;;;4935843;28;20273;-71
2022/11/22 06:01:21;;;;;;;5.43;3.35;;;4.50;99.90;;;;;;4935864;29;20051;-71
2022/11/22 06:03:47;;;;;;;5.50;3.47;;;4.60;99.90;;;;;;4937938;29;20034;-71
2022/11/22 06:06:14;;;;;;;6.18;3.78;;;4.60;99.90;;;;;;4932620;28;20122;-72
2022/11/22 06:08:45;;;;;;;7.18;4.28;;;4.50;99.90;;;;;;4939822;28;20039;-71
2022/11/22 06:11:17;;;;;;;8.27;5.32;;;4.50;99.90;;;;;;4930561;28;20164;-72
2022/11/22 06:13:44;;;;;;;8.73;4.70;;;4.60;99.90;;;;;;4932725;28;20031;-72
2022/11/22 06:16:10;;;;;;;7.93;4.78;;;4.60;99.90;;;;;;4938510;28;20034;-72
2022/11/22 06:18:36;;;;;;;9.13;6.15;;;4.60;99.90;;;;;;4939651;28;20028;-72
2022/11/22 06:21:04;;;;;;;12.50;7.00;;;4.70;99.90;;;;;;4929877;28;20050;-72
2022/11/22 06:23:30;;;;;;;8.40;5.20;;;4.70;99.90;;;;;;4925502;28;20031;-72
2022/11/22 06:26:01;;;;;;;4.88;2.88;;;4.60;99.90;;;;;;4937905;28;20724;-72
2022/11/22 06:28:29;;;;;;;5.47;2.92;;;4.50;99.90;;;;;;4930541;29;20367;-73
2022/11/22 06:31:08;;;;;;;5.13;2.75;;;4.40;99.90;;;;;;4934037;29;20915;-71
2022/11/22 06:33:34;;;;;;;7.00;3.78;;;4.40;99.90;;;;;;4930060;28;20043;-73
2022/11/22 06:36:05;;;;;;;5.15;3.08;;;4.30;99.90;;;;;;4929149;29;20390;-73
2022/11/22 06:38:31;;;;;;;6.60;2.80;;;4.20;99.90;;;;;;4931831;29;20070;-73
2022/11/22 06:41:05;;;;;;;5.70;3.25;;;4.10;99.90;;;;;;4931618;28;20044;-73
2022/11/22 06:43:32;;;;;;;5.95;3.30;;;4.10;99.90;;;;;;4925333;29;26302;-73
2022/11/22 06:45:59;;;;;;;5.82;3.17;;;4.00;99.90;;;;;;4928020;28;20109;-73
2022/11/22 06:48:27;;;;;;;6.75;3.53;;;3.90;99.90;;;;;;4933470;28;20063;-73
2022/11/22 06:50:58;;;;;;;6.25;3.30;;;3.80;99.90;;;;;;4932231;28;20407;-73
2022/11/22 06:53:26;;;;;;;8.63;4.38;;;3.90;99.90;;;;;;4934703;28;20045;-73
2022/11/22 06:55:52;;;;;;;6.15;3.67;;;3.80;99.90;;;;;;4934651;29;20054;-73
2022/11/22 06:58:17;;;;;;;8.63;4.53;;;3.80;99.90;;;;;;4931486;29;20121;-73
2022/11/22 07:00:43;;;;;;;7.13;2.67;;;3.80;99.90;;;;;;4933905;28;20106;-73
2022/11/22 07:03:08;;;;;;;5.00;2.42;;;3.80;99.90;;;;;;4933160;28;20034;-73
2022/11/22 07:05:34;;;;;;;5.35;2.90;;;3.90;99.90;;;;;;4930778;29;20032;-73
2022/11/22 07:08:00;;;;;;;5.75;3.42;;;4.10;99.90;;;;;;4935313;28;20046;-73
2022/11/22 07:10:25;;;;;;;6.05;2.97;;;4.00;99.90;;;;;;4930376;28;20039;-73
2022/11/22 07:12:51;;;;;;;8.18;4.50;;;4.10;99.90;;;;;;4939403;28;20034;-73
2022/11/22 07:15:17;;;;;;;8.07;4.63;;;4.20;99.90;;;;;;4932060;28;20592;-73
2022/11/22 07:17:43;;;;;;;6.90;2.75;;;4.20;99.90;;;;;;4928806;28;20053;-73
2022/11/22 07:20:09;;;;;;;5.85;3.13;;;4.20;99.90;;;;;;4934016;28;20047;-73
2022/11/22 07:22:34;;;;;;;8.57;4.45;;;4.20;99.90;;;;;;4928516;28;20032;-73
2022/11/22 07:25:00;;;;;;;7.03;3.90;;;4.10;99.90;;;;;;4932615;28;20066;-73
2022/11/22 07:27:26;;;;;;;7.78;3.80;;;4.10;99.90;;;;;;4930695;28;20043;-73
2022/11/22 07:29:51;;;;;;;5.60;3.08;;;4.10;99.90;;;;;;4931374;29;20778;-74
2022/11/22 07:32:17;;;;;;;6.15;3.33;;;3.90;99.90;;;;;;4929568;28;20111;-73
2022/11/22 07:34:43;;;;;;;6.65;3.95;;;3.90;99.90;;;;;;4930334;28;20039;-72
2022/11/22 07:37:08;;;;;;;6.38;3.85;;;3.90;99.90;;;;;;4933469;29;20051;-73
2022/11/22 07:39:34;;;;;;;7.15;4.35;;;4.00;99.90;;;;;;4932227;28;20039;-73
2022/11/22 07:41:59;;;;;;;7.72;3.75;;;3.90;99.90;;;;;;4933197;28;20380;-72
2022/11/22 07:44:25;;;;;;;9.40;4.38;;;3.80;99.90;;;;;;4933681;29;20031;-72
2022/11/22 07:46:51;;;;;;;6.22;3.80;;;4.00;99.90;;;;;;4931844;28;20032;-72
2022/11/22 07:49:17;;;;;;;7.55;3.90;;;4.00;99.90;;;;;;4928883;28;20089;-72
2022/11/22 07:51:42;;;;;;;7.05;3.83;;;4.00;99.90;;;;;;4938336;28;20110;-72
2022/11/22 07:54:12;;;;;;;8.15;3.92;;;4.00;99.90;;;;;;4931665;28;20049;-72
2022/11/22 07:56:37;;;;;;;4.90;2.78;;;4.00;99.90;;;;;;4934325;29;20036;-72
2022/11/22 07:59:03;;;;;;;5.30;2.67;;;4.10;99.90;;;;;;4934548;28;20039;-72
2022/11/22 19:04:24;;;;;;;0.20;0.03;;;10.50;90.00;;;;;;5063393;28;20634;-71
2022/11/22 19:06:50;;;;;;;0.85;0.13;;;10.30;87.60;;;;;;5051215;28;20059;-72
2022/11/22 19:09:16;;;;;;;1.35;0.20;;;10.30;87.90;;;;;;5041895;28;20024;-72
2022/11/22 19:11:42;;;;;;;0.20;0.05;;;10.20;88.60;;;;;;5050025;28;20083;-72
2022/11/22 19:17:31;;;;;;;0.30;0.20;;;10.60;89.20;;;;;;5102796;27;20129;-72
2022/11/22 19:19:57;;;;;;;0.63;0.03;;;10.30;88.60;;;;;;5097138;28;20454;-72
2022/11/22 19:22:24;;;;;;;0.17;0.10;;;10.20;88.60;;;;;;5096167;28;20073;-71
2022/11/22 19:24:50;;;;;;;1.27;0.30;;;10.10;88.90;;;;;;5098603;28;20028;-72
2022/11/22 19:27:16;;;;;;;0.43;0.20;;;10.00;89.20;;;;;;5099104;28;20152;-72
2022/11/22 19:29:41;;;;;;;0.20;0.03;;;10.00;90.00;;;;;;5098230;28;20024;-74
2022/11/22 19:32:07;;;;;;;0.10;0.00;;;9.90;89.90;;;;;;5107218;28;20038;-72
2022/11/22 19:34:33;;;;;;;0.68;0.13;;;9.90;90.10;;;;;;5095142;28;20030;-71
2022/11/22 19:36:59;;;;;;;0.98;0.00;;;9.90;90.20;;;;;;5094821;28;20034;-71
2022/11/22 19:39:25;;;;;;;0.63;0.20;;;9.90;89.90;;;;;;5096443;28;20891;-71
2022/11/22 19:41:52;;;;;;;0.88;0.20;;;9.90;88.70;;;;;;5095869;28;20549;-71
2022/11/22 19:44:18;;;;;;;0.45;0.20;;;10.00;89.40;;;;;;5104220;28;20028;-72
2022/11/22 19:46:43;;;;;;;1.33;0.57;;;10.00;89.30;;;;;;5095632;28;20035;-72
2022/11/22 19:49:09;;;;;;;1.65;0.65;;;9.90;90.00;;;;;;5088588;28;20028;-72
2022/11/22 19:51:35;;;;;;;1.25;0.20;;;9.90;89.40;;;;;;5090332;28;20081;-72
2022/11/22 19:54:02;;;;;;;2.97;0.80;;;9.90;88.90;;;;;;5097355;28;20024;-72
2022/11/22 19:56:31;;;;;;;0.32;0.10;;;10.00;89.50;;;;;;5094492;28;20044;-74
2022/11/22 19:58:58;;;;;;;0.30;0.00;;;9.90;89.10;;;;;;5095138;28;20429;-73
2022/11/22 20:01:25;;;;;;;1.17;0.20;;;10.10;87.50;;;;;;5087365;28;20027;-72
2022/11/22 20:03:53;;;;;;;2.05;0.25;;;10.00;89.40;;;;;;5101934;28;20031;-73
2022/11/22 20:06:20;;;;;;;0.38;0.15;;;10.00;88.60;;;;;;5097403;28;20030;-72
2022/11/22 20:08:45;;;;;;;1.17;0.20;;;10.20;88.00;;;;;;5089665;28;20030;-73
2022/11/22 20:11:17;;;;;;;0.63;0.10;;;10.10;88.70;;;;;;5089429;28;20024;-73
2022/11/22 20:13:45;;;;;;;0.10;0.10;;;10.10;88.00;;;;;;5100200;28;20078;-73
2022/11/22 20:16:15;;;;;;;1.55;0.50;;;10.10;89.00;;;;;;5101352;28;20048;-72
2022/11/22 20:18:41;;;;;;;1.00;0.20;;;10.00;90.00;;;;;;5102177;28;20055;-73
2022/11/22 20:21:09;;;;;;;2.08;0.32;;;9.90;89.20;;;;;;5095089;28;20028;-73
2022/11/22 20:23:35;;;;;;;0.15;0.03;;;10.10;88.40;;;;;;5103761;28;20494;-73
2022/11/22 20:26:20;;;;;;;0.43;0.10;;;10.10;89.00;;;;;;5098887;28;20031;-72
2022/11/22 20:28:47;;;;;;;0.30;0.05;;;10.00;89.10;;;;;;5087413;28;20063;-72
2022/11/22 20:31:17;;;;;;;0.57;0.13;;;10.10;88.80;;;;;;5086233;28;20078;-73
2022/11/22 20:33:46;;;;;;;1.65;0.20;;;10.10;88.40;;;;;;5091282;28;20027;-73
2022/11/22 20:36:23;;;;;;;1.42;0.20;;;10.30;87.20;;;;;;5084104;28;20036;-72
2022/11/22 20:38:50;;;;;;;1.85;0.52;;;10.10;89.20;;;;;;5080166;28;20036;-73
2022/11/22 20:41:18;;;;;;;0.63;0.17;;;9.90;89.60;;;;;;5083497;28;20087;-73
2022/11/22 20:43:45;;;;;;;0.00;0.00;;;10.00;89.20;;;;;;5081341;28;20035;-73
2022/11/22 20:46:13;;;;;;;0.20;0.08;;;10.00;87.90;;;;;;5082902;28;20032;-73
2022/11/22 20:48:40;;;;;;;0.55;0.32;;;9.90;89.20;;;;;;5079292;28;20028;-72
2022/11/22 20:51:09;;;;;;;0.40;0.30;;;10.00;89.10;;;;;;5079468;28;20036;-72
2022/11/22 20:53:35;;;;;;;0.40;0.10;;;9.80;90.20;;;;;;5083357;28;20450;-72
2022/11/22 20:56:01;;;;;;;0.10;0.03;;;9.50;90.80;;;;;;5084070;28;20143;-72
2022/11/22 20:58:27;;;;;;;0.50;0.28;;;9.60;90.00;;;;;;5088199;28;20099;-72
2022/11/22 21:00:54;;;;;;;2.22;1.02;;;9.70;90.20;;;;;;5081877;28;20024;-72
2022/11/22 21:03:20;;;;;;;1.25;0.30;;;9.70;90.10;;;;;;5045313;28;20108;-72
2022/11/22 21:05:49;;;;;;;0.35;0.10;;;9.70;90.50;;;;;;5055091;28;20028;-71
2022/11/22 21:08:15;;;;;;;0.65;0.52;;;9.60;90.20;;;;;;5059736;28;20028;-71
2022/11/22 21:10:41;;;;;;;0.10;0.10;;;9.60;90.40;;;;;;5057485;28;20482;-72
2022/11/22 21:13:06;;;;;;;1.42;0.52;;;9.60;90.40;;;;;;5058809;28;20687;-72
2022/11/22 21:15:33;;;;;;;0.45;0.20;;;9.50;91.00;;;;;;5046499;28;20076;-72
2022/11/22 21:18:03;;;;;;;0.43;0.10;;;9.50;90.40;;;;;;5063341;28;20035;-72
2022/11/22 21:20:32;;;;;;;0.60;0.20;;;9.70;89.80;;;;;;5054634;28;20636;-72
2022/11/22 21:22:58;;;;;;;0.35;0.15;;;9.70;89.90;;;;;;5052708;28;20039;-72
2022/11/22 21:25:24;;;;;;;1.38;0.22;;;9.70;90.10;;;;;;5050525;28;20379;-72
2022/11/22 21:27:50;;;;;;;1.55;0.52;;;9.60;90.20;;;;;;5046974;28;20033;-72
2022/11/22 21:30:17;;;;;;;0.43;0.20;;;9.40;90.80;;;;;;5044653;28;20029;-73
2022/11/22 21:32:43;;;;;;;3.60;0.35;;;9.40;90.70;;;;;;5054874;28;20115;-72
2022/11/22 21:35:09;;;;;;;0.50;0.25;;;9.40;90.50;;;;;;5051012;28;20158;-72
2022/11/22 21:37:34;;;;;;;0.25;0.10;;;9.50;90.20;;;;;;5055201;28;20123;-72
2022/11/22 21:40:00;;;;;;;0.52;0.20;;;9.50;90.80;;;;;;5049585;28;20598;-72
2022/11/22 21:42:26;;;;;;;1.92;0.17;;;9.40;90.80;;;;;;5046017;28;20062;-72
2022/11/22 21:44:51;;;;;;;0.20;0.10;;;9.40;90.80;;;;;;5048063;28;20709;-72
2022/11/22 21:47:20;;;;;;;1.00;0.40;;;9.30;90.80;;;;;;5047418;28;20024;-72
2022/11/22 21:49:46;;;;;;;0.95;0.40;;;9.40;90.40;;;;;;5058457;28;20043;-72
2022/11/22 21:52:11;;;;;;;0.38;0.10;;;9.40;90.60;;;;;;5045983;28;20044;-72
2022/11/22 21:54:39;;;;;;;0.20;0.20;;;9.30;90.80;;;;;;5043458;28;20055;-72
2022/11/22 21:57:06;;;;;;;0.55;0.28;;;9.40;90.80;;;;;;5050646;28;20051;-72
2022/11/22 21:59:31;;;;;;;0.20;0.10;;;9.30;91.10;;;;;;5050422;28;20060;-72
2022/11/22 22:01:57;;;;;;;0.20;0.10;;;9.30;91.00;;;;;;5053055;28;20063;-72
2022/11/22 22:04:23;;;;;;;1.35;0.70;;;9.20;90.80;;;;;;5050864;28;20069;-73
2022/11/22 22:06:48;;;;;;;0.15;0.10;;;9.40;90.60;;;;;;5044851;28;20107;-72
2022/11/22 22:09:14;;;;;;;0.57;0.30;;;9.30;90.70;;;;;;5050312;28;20028;-72
2022/11/22 22:11:43;;;;;;;0.43;0.32;;;9.50;90.40;;;;;;5051237;28;20025;-73
2022/11/22 22:14:08;;;;;;;0.57;0.25;;;9.40;90.40;;;;;;5060860;28;20056;-72
2022/11/22 22:16:34;;;;;;;1.02;0.20;;;9.50;90.10;;;;;;5047702;28;20127;-72
2022/11/22 22:19:00;;;;;;;0.40;0.20;;;9.50;90.30;;;;;;5050611;28;20031;-72
2022/11/22 22:21:25;;;;;;;0.30;0.10;;;9.40;90.70;;;;;;5053766;28;20036;-72
2022/11/22 22:23:52;;;;;;;4.93;0.20;;;9.40;90.40;;;;;;5049774;28;20502;-72
2022/11/22 22:26:18;;;;;;;0.80;0.45;;;9.30;90.50;;;;;;5052572;28;20455;-72
2022/11/22 22:28:45;;;;;;;0.32;0.10;;;9.30;90.90;;;;;;5049358;28;20029;-72
2022/11/22 22:31:21;;;;;;;0.73;0.50;;;9.20;90.80;;;;;;5042564;28;20028;-71
2022/11/22 22:33:57;;;;;;;0.90;0.10;;;9.00;91.70;;;;;;5048209;28;20028;-71
2022/11/22 22:36:25;;;;;;;0.50;0.10;;;9.10;90.80;;;;;;5046881;28;20047;-71
2022/11/22 22:38:50;;;;;;;0.65;0.20;;;9.10;90.90;;;;;;5052908;28;20522;-71
2022/11/22 22:41:17;;;;;;;0.40;0.10;;;9.10;90.90;;;;;;5052800;28;20037;-71
2022/11/22 22:43:46;;;;;;;0.47;0.17;;;9.10;91.20;;;;;;5054829;28;20041;-71
2022/11/22 22:46:12;;;;;;;0.52;0.17;;;9.10;90.80;;;;;;5052635;28;20032;-71
2022/11/22 22:48:39;;;;;;;0.98;0.20;;;8.90;91.80;;;;;;5059135;28;20106;-71
2022/11/22 22:51:13;;;;;;;0.30;0.17;;;8.90;91.30;;;;;;5052520;28;20066;-71
2022/11/22 22:53:39;;;;;;;1.05;0.10;;;8.90;91.40;;;;;;5057184;28;20573;-71
2022/11/22 22:56:06;;;;;;;0.55;0.15;;;9.00;91.30;;;;;;5055655;28;20040;-71
2022/11/22 22:58:31;;;;;;;0.65;0.20;;;8.80;92.00;;;;;;5051556;28;20062;-71
2022/11/22 23:01:16;;;;;;;0.30;0.10;;;8.70;91.40;;;;;;5059709;28;20499;-71
2022/11/22 23:03:46;;;;;;;0.77;0.13;;;8.70;92.30;;;;;;5050821;28;20067;-71
2022/11/22 23:06:11;;;;;;;1.08;0.28;;;8.60;91.80;;;;;;5045137;28;20522;-71
2022/11/22 23:08:38;;;;;;;0.52;0.10;;;8.90;91.00;;;;;;5049750;28;20142;-71
2022/11/22 23:11:06;;;;;;;0.85;0.30;;;8.90;91.10;;;;;;5059817;28;20364;-71
2022/11/22 23:13:34;;;;;;;0.85;0.52;;;8.80;91.80;;;;;;5052439;28;20029;-71
2022/11/22 23:16:00;;;;;;;0.70;0.25;;;8.70;92.10;;;;;;5054637;28;20044;-71
2022/11/22 23:18:26;;;;;;;1.40;0.45;;;8.60;92.10;;;;;;5053653;28;20025;-71
2022/11/22 23:20:58;;;;;;;0.32;0.20;;;8.70;91.20;;;;;;5050840;28;20146;-71
2022/11/22 23:23:23;;;;;;;0.32;0.10;;;8.70;91.60;;;;;;5057022;28;20028;-71
2022/11/22 23:25:49;;;;;;;1.48;0.15;;;8.70;91.70;;;;;;5045423;28;20029;-71
2022/11/22 23:28:15;;;;;;;0.30;0.10;;;8.60;91.60;;;;;;5056338;28;20116;-71
2022/11/22 23:30:41;;;;;;;1.05;0.30;;;8.80;91.30;;;;;;5052734;28;20025;-71
2022/11/22 23:33:06;;;;;;;0.20;0.17;;;8.90;91.10;;;;;;5056604;28;20085;-71
2022/11/22 23:35:35;;;;;;;1.65;0.22;;;8.90;91.40;;;;;;5051608;28;20115;-71
2022/11/22 23:38:01;;;;;;;2.45;0.60;;;8.80;91.60;;;;;;5048972;28;20028;-71
2022/11/22 23:40:27;;;;;;;0.13;0.10;;;8.80;91.30;;;;;;5053125;28;20032;-71
2022/11/22 23:42:58;;;;;;;0.47;0.40;;;8.80;91.20;;;;;;5047874;28;20162;-71
2022/11/22 23:45:24;;;;;;;1.35;0.52;;;8.70;91.50;;;;;;5050818;28;20032;-71
2022/11/22 23:47:50;;;;;;;1.30;0.22;;;8.70;91.40;;;;;;5057612;28;20062;-71
2022/11/22 23:50:16;;;;;;;0.47;0.10;;;8.50;92.10;;;;;;5054740;28;20036;-71
2022/11/22 23:52:42;;;;;;;0.32;0.10;;;8.40;92.60;;;;;;5049553;28;20033;-71
2022/11/22 23:55:08;;;;;;;0.88;0.10;;;8.40;92.50;;;;;;5053559;28;20036;-71
2022/11/22 23:57:33;;;;;;;3.92;0.20;;;8.30;92.90;;;;;;5041771;28;20044;-71
2022/11/22 23:59:59;;;;;;;0.35;0.20;;;8.30;92.60;;;;;;5044309;28;20349;-71
